Boynton Beach, FL (33435)

7:20 AM EST on February 11, 2016 (GMT -0500)
Forest Park | | Change Station
CLOSE
Current Station
Personal Weather Station
Location: Boynton Beach, FL
Elevation: 15 ft
Nearby Weather Stations

Elev 15 ft 26.52 °N, 80.07 °W | Updated 0 second ago

Partly Cloudy
Partly Cloudy
49.1 °F
Feels Like 49 °F
N
1.2
Wind Variable Wind from NNW
Gusts 1.2 mph

Today
High -- | Low -- °F
--% Chance of Precip.
Yesterday
High -- | Low -- °F
Precip. -- in
Pressure 30.30 in
Visibility 10.0 miles
Clouds Scattered Clouds 25000 ft
Windchill 49 °F
Dew Point 41 °F
Humidity 74%
Rainfall 0.00 in
Snow Depth Not available.
6:59 AM 6:09 PM
Waxing Crescent, 11% visible
METAR KPBI 111153Z 33007KT 10SM SCT250 07/03 A3030 RMK AO2 SLP260 T00670028 10083 20056 53015 $
Pressure 30.30 in
Visibility 10.0 miles
Clouds Scattered Clouds 25000 ft
Windchill 49 °F
Dew Point 41 °F
Humidity 74%
Rainfall 0.00 in
Snow Depth Not available.
6:59 AM 6:09 PM
Waxing Crescent, 11% visible
METAR KPBI 111153Z 33007KT 10SM SCT250 07/03 A3030 RMK AO2 SLP260 T00670028 10083 20056 53015 $

10-Day Weather Forecast

Almanac

Astronomy

Feb. 11, 2016 Rise Set
Actual Time
Civil Twilight
Nautical Twilight
Astronomical Twilight
Moon
Length of Visible Light
Length of Day
Tomorrow will be .
, % of the Moon is Illuminated

Today's Extremes

State Highs State Lows

Community

WunderPhotos

Upload Photos

1,892,035 photos uploaded!

WunderBlog® & News

Nearby

Air Quality

  Air Quality AQ Index Pollutant
Not available.

Snow Depth

Station Depth Elevation

Earthquake Activity

City Distance Mag. Time & Date
Minimum magnitude displayed is 2.5.

Coastal Water Temperatures

Place Temperature

Stations

Nearby Weather Stations

Station Location Temp. Windchill Dew Point Humidity Wind Precip. Elev Updated Type
                   

Watches & Warnings

There are currently no watches in effect.